Time;durP1;ratioP1;P1;durP2;ratioP2;P2;SDS_P1;SDS_P2;PMS_P1;PMS_P2;Temp;Humidity;BMP_temperature;BMP_pressure;BME280_temperature;BME280_humidity;BME280_pressure;Samples;Min_cycle;Max_cycle;Signal;HPM_P1;HPM_P2
2022/12/26 00:01:45;;;;;;;14.15;8.13;;;8.20;99.90;;;;;;5010755;28;20202;-69
2022/12/26 00:04:12;;;;;;;16.60;8.13;;;8.20;99.90;;;;;;5034679;28;20208;-69
2022/12/26 00:06:40;;;;;;;14.53;8.17;;;8.20;99.90;;;;;;5032852;28;20205;-69
2022/12/26 00:09:07;;;;;;;22.47;8.40;;;8.30;99.90;;;;;;5032359;28;20231;-69
2022/12/26 00:11:35;;;;;;;14.23;7.90;;;8.20;99.90;;;;;;5046546;28;20205;-69
2022/12/26 00:14:04;;;;;;;16.20;8.67;;;8.20;99.90;;;;;;5018424;28;20229;-69
2022/12/26 00:16:31;;;;;;;12.97;8.37;;;8.20;99.90;;;;;;5015410;28;20227;-69
2022/12/26 00:18:58;;;;;;;12.07;8.30;;;8.30;99.90;;;;;;5029631;28;20571;-69
2022/12/26 00:21:26;;;;;;;12.43;8.10;;;8.20;99.90;;;;;;5034026;28;20209;-69
2022/12/26 00:23:55;;;;;;;12.20;7.83;;;8.20;99.90;;;;;;5038614;28;20201;-69
2022/12/26 00:26:24;;;;;;;12.67;7.27;;;8.20;99.90;;;;;;5030511;28;20699;-69
2022/12/26 00:28:51;;;;;;;10.52;6.82;;;8.30;99.90;;;;;;5028304;28;20207;-69
2022/12/26 00:31:19;;;;;;;14.33;7.73;;;8.20;99.90;;;;;;5036378;28;20208;-69
2022/12/26 00:33:47;;;;;;;12.00;8.23;;;8.20;99.90;;;;;;5014932;28;20227;-69
2022/12/26 00:36:17;;;;;;;13.50;7.63;;;8.30;99.90;;;;;;5025082;28;20207;-69
2022/12/26 00:38:45;;;;;;;12.87;7.10;;;8.30;99.90;;;;;;5029343;28;20209;-69
2022/12/26 00:41:14;;;;;;;11.03;7.30;;;8.30;99.90;;;;;;5029235;28;20201;-69
2022/12/26 00:43:41;;;;;;;14.32;7.28;;;8.30;99.90;;;;;;5017805;28;20204;-69
2022/12/26 00:46:09;;;;;;;13.70;7.37;;;8.30;99.90;;;;;;5024759;28;20304;-69
2022/12/26 00:48:36;;;;;;;14.67;7.60;;;8.30;99.90;;;;;;5011187;28;21470;-69
2022/12/26 00:51:04;;;;;;;13.30;7.37;;;8.40;99.90;;;;;;5012441;28;20201;-69
2022/12/26 00:53:31;;;;;;;12.30;7.43;;;8.50;99.90;;;;;;5027285;28;20832;-69
2022/12/26 00:55:58;;;;;;;17.87;8.53;;;8.40;99.90;;;;;;5026997;28;20900;-69
2022/12/26 00:58:27;;;;;;;14.60;8.00;;;8.50;99.90;;;;;;5041566;28;20204;-69
2022/12/26 01:00:54;;;;;;;13.52;8.15;;;8.50;99.90;;;;;;5014664;28;20212;-69
2022/12/26 01:03:21;;;;;;;13.50;8.03;;;8.50;99.90;;;;;;5046851;28;20208;-69
2022/12/26 01:05:50;;;;;;;13.33;7.30;;;8.50;99.90;;;;;;5007057;28;20201;-69
2022/12/26 01:08:17;;;;;;;15.25;8.10;;;8.50;99.90;;;;;;5035610;28;20233;-69
2022/12/26 01:10:46;;;;;;;13.50;8.50;;;8.40;99.90;;;;;;5025935;28;20588;-69
2022/12/26 01:13:13;;;;;;;22.03;9.90;;;8.40;99.90;;;;;;5037823;28;20224;-69
2022/12/26 01:15:47;;;;;;;30.40;9.33;;;8.40;99.90;;;;;;5024371;28;20201;-69
2022/12/26 01:18:14;;;;;;;16.77;9.10;;;8.50;99.90;;;;;;5038364;28;20206;-69
2022/12/26 01:20:41;;;;;;;16.47;9.53;;;8.40;99.90;;;;;;5006268;28;20212;-69
2022/12/26 01:23:08;;;;;;;17.10;9.23;;;8.40;99.90;;;;;;5036959;28;20225;-69
2022/12/26 01:25:34;;;;;;;15.27;8.77;;;8.40;99.90;;;;;;5027744;28;20216;-69
2022/12/26 01:28:01;;;;;;;17.00;8.77;;;8.40;99.90;;;;;;5029429;28;20204;-69
2022/12/26 01:30:28;;;;;;;14.60;9.35;;;8.40;99.90;;;;;;5028339;28;20220;-69
2022/12/26 01:32:56;;;;;;;25.50;9.97;;;8.40;99.90;;;;;;5029315;28;20220;-69
2022/12/26 01:35:23;;;;;;;13.17;8.43;;;8.40;99.90;;;;;;5016037;28;20269;-69
2022/12/26 01:37:50;;;;;;;20.58;9.40;;;8.40;99.90;;;;;;5030314;28;20960;-69
2022/12/26 01:40:17;;;;;;;21.67;10.30;;;8.40;99.90;;;;;;5029167;28;20201;-69
2022/12/26 01:42:43;;;;;;;41.40;9.27;;;8.40;99.90;;;;;;5031367;28;20214;-69
2022/12/26 01:45:23;;;;;;;50.03;10.50;;;8.40;99.90;;;;;;5026423;28;20209;-69
2022/12/26 01:47:53;;;;;;;33.90;9.73;;;8.40;99.90;;;;;;5021713;28;20201;-69
2022/12/26 01:50:34;;;;;;;19.50;8.60;;;8.40;99.90;;;;;;5007746;28;21400;-69
2022/12/26 01:53:08;;;;;;;13.02;8.10;;;8.40;99.90;;;;;;5030760;28;20201;-69
2022/12/26 01:55:35;;;;;;;53.70;9.32;;;8.40;99.90;;;;;;5023074;28;20209;-69
2022/12/26 01:58:06;;;;;;;39.27;8.77;;;8.40;99.90;;;;;;5020278;28;20201;-69
2022/12/26 02:00:36;;;;;;;34.97;8.30;;;8.40;99.90;;;;;;5021831;28;20308;-69
2022/12/26 02:05:50;;;;;;;27.93;7.70;;;8.40;99.90;;;;;;5004834;28;20411;-69
2022/12/26 02:08:21;;;;;;;45.87;8.17;;;8.40;99.90;;;;;;5024043;28;20233;-69
2022/12/26 02:10:51;;;;;;;46.20;8.97;;;8.40;99.90;;;;;;5023497;28;21208;-69
2022/12/26 02:13:19;;;;;;;25.17;8.03;;;8.40;99.90;;;;;;5023864;28;20205;-69
2022/12/26 02:15:47;;;;;;;29.90;8.10;;;8.40;99.90;;;;;;5021167;28;20209;-69
2022/12/26 02:18:14;;;;;;;30.50;7.53;;;8.40;99.90;;;;;;5018881;28;20208;-69
2022/12/26 02:20:50;;;;;;;33.70;8.33;;;8.40;99.90;;;;;;5004895;28;20208;-69
2022/12/26 02:23:46;;;;;;;41.23;8.47;;;8.50;99.90;;;;;;5027950;28;20213;-69
2022/12/26 02:26:41;;;;;;;41.40;8.33;;;8.50;99.90;;;;;;5026730;28;20201;-69
2022/12/26 02:29:42;;;;;;;22.87;7.20;;;8.50;99.90;;;;;;5021116;28;20206;-69
2022/12/26 02:32:19;;;;;;;20.40;7.67;;;8.50;99.90;;;;;;4971633;28;20200;-69
2022/12/26 02:34:55;;;;;;;20.50;6.80;;;8.40;99.90;;;;;;5031170;28;22433;-69
2022/12/26 02:37:38;;;;;;;15.80;6.50;;;8.40;99.90;;;;;;5002024;28;21219;-69
2022/12/26 02:40:30;;;;;;;14.73;6.73;;;8.50;99.90;;;;;;5027032;28;20219;-69
2022/12/26 02:42:59;;;;;;;13.23;7.20;;;8.50;99.90;;;;;;5025700;28;20220;-69
2022/12/26 02:48:27;;;;;;;16.47;6.67;;;8.50;99.90;;;;;;5022733;28;20224;-69
2022/12/26 03:13:49;;;;;;;13.50;7.57;;;8.60;99.90;;;;;;5034200;28;20251;-69
2022/12/26 03:19:07;;;;;;;11.07;6.63;;;8.60;99.90;;;;;;5016607;28;20226;-69
2022/12/26 03:21:40;;;;;;;10.53;6.57;;;8.60;99.90;;;;;;5045198;28;20256;-69
2022/12/26 03:24:09;;;;;;;14.23;7.10;;;8.60;99.90;;;;;;5015554;28;20295;-69
2022/12/26 03:26:41;;;;;;;17.10;6.80;;;8.60;99.90;;;;;;5030076;28;20891;-69
2022/12/26 03:31:55;;;;;;;12.37;6.80;;;8.60;99.90;;;;;;5043828;28;20972;-69
2022/12/26 03:34:22;;;;;;;15.57;7.07;;;8.60;99.90;;;;;;5022836;28;20236;-69
2022/12/26 03:37:18;;;;;;;15.00;7.00;;;8.60;99.90;;;;;;5041513;28;20193;-69
2022/12/26 04:19:44;;;;;;;9.57;5.80;;;8.60;99.90;;;;;;5016852;28;20212;-69
2022/12/26 04:44:48;;;;;;;9.27;5.50;;;8.70;99.90;;;;;;5037434;28;20600;-69
2022/12/26 04:47:15;;;;;;;11.23;5.03;;;8.70;99.90;;;;;;5028398;28;20214;-69
2022/12/26 04:55:14;;;;;;;8.33;5.50;;;8.70;99.90;;;;;;5031839;28;20228;-69
2022/12/26 04:57:41;;;;;;;9.87;6.07;;;8.80;99.90;;;;;;5005064;28;20204;-69
2022/12/26 05:00:10;;;;;;;6.90;4.80;;;8.70;99.90;;;;;;5014447;28;20208;-69
2022/12/26 05:10:50;;;;;;;8.33;5.00;;;8.80;99.90;;;;;;5042032;28;20317;-69
2022/12/26 05:13:17;;;;;;;7.70;5.40;;;8.80;99.90;;;;;;5006282;28;20224;-69
2022/12/26 05:29:28;;;;;;;8.63;5.60;;;8.90;99.90;;;;;;5017215;28;20255;-69
2022/12/26 05:31:56;;;;;;;7.17;5.07;;;8.90;99.90;;;;;;5039124;28;20200;-69
2022/12/26 05:34:21;;;;;;;7.73;5.23;;;8.90;99.90;;;;;;5026309;28;20236;-69
2022/12/26 05:36:51;;;;;;;13.40;6.13;;;8.90;99.90;;;;;;5043314;28;20217;-69
2022/12/26 05:39:18;;;;;;;7.67;5.50;;;8.90;99.90;;;;;;5023347;28;20203;-69
2022/12/26 05:41:45;;;;;;;8.17;5.90;;;8.90;99.90;;;;;;5038096;28;20695;-69
2022/12/26 05:44:12;;;;;;;9.18;6.03;;;8.90;99.90;;;;;;5002536;28;20205;-69
2022/12/26 05:46:41;;;;;;;9.27;5.83;;;9.00;99.90;;;;;;5036870;28;20201;-69
2022/12/26 05:49:09;;;;;;;9.53;6.33;;;9.00;99.90;;;;;;5029439;28;20215;-69
2022/12/26 05:51:36;;;;;;;7.27;5.60;;;9.00;99.90;;;;;;5047148;28;20194;-69
2022/12/26 05:54:04;;;;;;;7.77;5.70;;;9.00;99.90;;;;;;5023327;28;20220;-69
2022/12/26 05:56:30;;;;;;;8.40;6.47;;;9.00;99.90;;;;;;5038643;28;20204;-69
2022/12/26 05:59:00;;;;;;;9.27;5.70;;;9.00;99.90;;;;;;5011431;28;20209;-69
2022/12/26 06:01:28;;;;;;;10.25;6.80;;;9.00;99.90;;;;;;5040708;28;20207;-69
2022/12/26 06:03:57;;;;;;;9.97;6.63;;;9.00;99.90;;;;;;5023463;28;20689;-69
2022/12/26 06:06:26;;;;;;;9.80;7.17;;;9.00;99.90;;;;;;5039993;28;21059;-69
2022/12/26 06:08:54;;;;;;;9.23;5.80;;;9.00;99.90;;;;;;5019649;28;20844;-69
2022/12/26 06:11:23;;;;;;;9.88;6.65;;;9.00;99.90;;;;;;5042625;28;20662;-69
2022/12/26 06:13:50;;;;;;;8.60;5.67;;;9.00;99.90;;;;;;5006614;28;20220;-69
2022/12/26 06:16:18;;;;;;;9.03;6.50;;;9.00;99.90;;;;;;5037484;28;20233;-69
2022/12/26 06:18:47;;;;;;;9.07;6.30;;;9.00;99.90;;;;;;5025303;28;20212;-69
2022/12/26 06:21:15;;;;;;;12.03;6.73;;;9.00;99.90;;;;;;5042767;28;20209;-69
2022/12/26 06:23:44;;;;;;;8.52;6.53;;;9.00;99.90;;;;;;5019335;28;20221;-69
2022/12/26 06:26:11;;;;;;;11.73;7.77;;;9.00;99.90;;;;;;5035371;28;20721;-69
2022/12/26 06:28:39;;;;;;;11.27;7.57;;;9.00;99.90;;;;;;5037249;28;20679;-69
2022/12/26 06:31:08;;;;;;;12.67;8.23;;;9.10;99.90;;;;;;5009572;28;21113;-69
2022/12/26 06:33:34;;;;;;;13.50;8.20;;;9.00;99.90;;;;;;5027320;28;20193;-69
2022/12/26 06:36:06;;;;;;;10.37;7.80;;;9.10;99.90;;;;;;5042211;28;20225;-69
2022/12/26 06:38:34;;;;;;;13.20;7.57;;;9.00;99.90;;;;;;5026130;28;20678;-69
2022/12/26 06:41:05;;;;;;;12.57;7.40;;;9.10;99.90;;;;;;5027509;28;20202;-69
2022/12/26 06:43:31;;;;;;;11.23;6.97;;;9.10;99.90;;;;;;5040086;28;20196;-69
2022/12/26 06:46:00;;;;;;;12.33;8.13;;;9.00;99.90;;;;;;5008126;28;20213;-69
2022/12/26 06:48:28;;;;;;;12.67;7.67;;;9.10;99.90;;;;;;5039216;28;20201;-69
2022/12/26 06:50:55;;;;;;;15.33;8.53;;;9.00;99.90;;;;;;5029427;28;20216;-69
2022/12/26 06:53:23;;;;;;;13.95;8.38;;;9.00;99.90;;;;;;5029835;28;21047;-69
2022/12/26 06:55:50;;;;;;;15.70;8.80;;;9.00;99.90;;;;;;5026204;28;20985;-69
2022/12/26 06:58:18;;;;;;;13.17;8.70;;;9.00;99.90;;;;;;5036706;28;20216;-69
2022/12/26 07:00:45;;;;;;;12.97;8.50;;;9.00;99.90;;;;;;5007093;28;20216;-69
2022/12/26 07:03:12;;;;;;;14.20;9.10;;;8.90;99.90;;;;;;5039800;28;20205;-69
2022/12/26 07:05:39;;;;;;;14.00;8.43;;;9.00;99.90;;;;;;5022811;28;20689;-69
2022/12/26 07:08:06;;;;;;;12.50;8.00;;;9.00;99.90;;;;;;5001461;28;20239;-69
2022/12/26 07:10:35;;;;;;;13.03;7.67;;;9.00;99.90;;;;;;5041347;28;20196;-69
2022/12/26 07:13:02;;;;;;;13.93;8.05;;;9.00;99.90;;;;;;5013130;28;20377;-69
2022/12/26 07:15:30;;;;;;;14.23;8.30;;;9.00;99.90;;;;;;5043291;28;20240;-69
2022/12/26 07:17:57;;;;;;;15.53;9.47;;;9.00;99.90;;;;;;5007979;28;20200;-69
2022/12/26 07:20:23;;;;;;;13.53;8.37;;;9.10;99.90;;;;;;5025966;28;20211;-69
2022/12/26 07:22:50;;;;;;;16.70;8.50;;;9.10;99.90;;;;;;5036792;28;20206;-69
2022/12/26 07:25:17;;;;;;;14.80;8.32;;;9.10;99.90;;;;;;5035268;28;20495;-69
2022/12/26 07:27:44;;;;;;;11.67;7.70;;;9.10;99.90;;;;;;5023829;28;20208;-69
2022/12/26 07:30:11;;;;;;;13.60;8.80;;;9.10;99.90;;;;;;5036503;28;20220;-69
2022/12/26 07:32:39;;;;;;;12.63;8.15;;;9.10;99.90;;;;;;5004431;28;20715;-69
2022/12/26 07:35:06;;;;;;;16.43;8.50;;;9.10;99.90;;;;;;5042211;28;20233;-69
2022/12/26 07:37:33;;;;;;;15.20;9.13;;;9.10;99.90;;;;;;5021029;28;20205;-69
2022/12/26 07:40:00;;;;;;;15.17;8.70;;;9.10;99.90;;;;;;5030066;28;20217;-69
2022/12/26 07:42:27;;;;;;;14.93;7.80;;;9.10;99.90;;;;;;5036531;28;20217;-69
2022/12/26 07:44:53;;;;;;;14.47;8.70;;;9.10;99.90;;;;;;5012273;28;20228;-69
2022/12/26 07:47:20;;;;;;;16.70;8.75;;;9.10;99.90;;;;;;5007000;28;20794;-69
2022/12/26 07:49:48;;;;;;;21.83;9.70;;;9.10;99.90;;;;;;5029835;28;20221;-69
2022/12/26 07:52:15;;;;;;;14.93;8.87;;;9.10;99.90;;;;;;5022975;28;20209;-69
2022/12/26 07:54:42;;;;;;;18.43;10.13;;;9.20;99.90;;;;;;5041304;28;20201;-69
2022/12/26 07:57:09;;;;;;;16.85;9.75;;;9.10;99.90;;;;;;5046133;28;20686;-69
2022/12/26 07:59:36;;;;;;;15.30;9.30;;;9.10;99.90;;;;;;5031132;28;20203;-69
2022/12/26 08:02:03;;;;;;;15.87;9.13;;;9.20;99.90;;;;;;4999938;28;20219;-69
2022/12/26 08:04:30;;;;;;;15.93;10.03;;;9.20;99.90;;;;;;5049770;28;20211;-69
2022/12/26 08:06:59;;;;;;;16.07;9.07;;;9.20;99.90;;;;;;5045992;28;20236;-69
2022/12/26 08:09:25;;;;;;;13.82;8.93;;;9.20;99.90;;;;;;5026306;28;20228;-69
2022/12/26 08:11:52;;;;;;;15.80;9.43;;;9.20;99.90;;;;;;5045162;28;20211;-69
2022/12/26 08:14:19;;;;;;;14.40;8.80;;;9.30;99.90;;;;;;5045037;28;20198;-69
2022/12/26 08:16:46;;;;;;;16.33;9.20;;;9.20;99.90;;;;;;5011367;28;20232;-69
2022/12/26 08:19:13;;;;;;;16.13;9.13;;;9.20;99.90;;;;;;5041463;28;20290;-69
2022/12/26 08:21:40;;;;;;;13.90;8.27;;;9.30;99.90;;;;;;5044012;28;20939;-69
2022/12/26 08:24:08;;;;;;;14.60;8.98;;;9.30;99.90;;;;;;5030516;28;20585;-69
2022/12/26 08:26:35;;;;;;;15.00;9.15;;;9.20;99.90;;;;;;5043018;28;20971;-69
2022/12/26 08:29:02;;;;;;;15.43;9.20;;;9.20;99.90;;;;;;5043611;28;20200;-69
2022/12/26 08:31:29;;;;;;;15.73;8.70;;;9.20;99.90;;;;;;5023800;28;20220;-69
2022/12/26 08:33:57;;;;;;;15.07;8.50;;;9.20;99.90;;;;;;5006756;28;20216;-69
2022/12/26 08:36:24;;;;;;;14.33;8.43;;;9.20;99.90;;;;;;5040268;28;20243;-69
2022/12/26 08:38:51;;;;;;;17.70;9.00;;;9.10;99.90;;;;;;5019764;28;20216;-69
2022/12/26 08:41:19;;;;;;;15.40;8.83;;;9.10;99.90;;;;;;5039190;28;20252;-69
2022/12/26 08:43:48;;;;;;;13.70;8.07;;;9.10;99.90;;;;;;5028484;28;20217;-69
2022/12/26 08:46:16;;;;;;;20.30;9.00;;;9.10;99.90;;;;;;5025379;28;20311;-69
2022/12/26 08:48:43;;;;;;;16.13;8.57;;;9.10;99.90;;;;;;5026254;28;20221;-69
2022/12/26 08:51:14;;;;;;;13.75;7.78;;;9.10;99.90;;;;;;5032081;28;20221;-69
2022/12/26 08:53:41;;;;;;;13.55;7.88;;;9.10;99.90;;;;;;5038992;28;20211;-70
2022/12/26 08:56:16;;;;;;;11.50;7.10;;;9.10;99.90;;;;;;5032049;28;20570;-69
2022/12/26 08:58:44;;;;;;;14.47;7.60;;;9.10;99.90;;;;;;5039461;28;20203;-69
2022/12/26 09:01:13;;;;;;;12.37;7.47;;;9.10;99.90;;;;;;5018567;28;20217;-69
2022/12/26 09:03:41;;;;;;;13.18;7.63;;;9.10;99.90;;;;;;5023228;28;20314;-69
2022/12/26 09:06:12;;;;;;;13.10;7.93;;;9.00;99.90;;;;;;4994240;28;20231;-69
2022/12/26 09:08:39;;;;;;;15.43;8.07;;;9.10;99.90;;;;;;5034542;28;20229;-70
2022/12/26 09:11:08;;;;;;;11.75;7.25;;;9.10;99.90;;;;;;5019625;28;20848;-69
2022/12/26 09:13:36;;;;;;;12.53;7.80;;;9.00;99.90;;;;;;5038372;28;20201;-69
2022/12/26 09:16:06;;;;;;;14.40;8.33;;;9.00;99.90;;;;;;5035014;28;20244;-69
2022/12/26 09:18:33;;;;;;;14.20;8.02;;;9.10;99.90;;;;;;5031223;28;20216;-69
2022/12/26 09:21:00;;;;;;;12.25;8.18;;;9.10;99.90;;;;;;5006403;28;20219;-69
2022/12/26 09:23:27;;;;;;;12.18;7.88;;;9.10;99.90;;;;;;5038235;28;20846;-69
2022/12/26 09:25:54;;;;;;;16.50;8.67;;;9.10;99.90;;;;;;5018681;28;20209;-69
2022/12/26 09:28:21;;;;;;;14.43;7.57;;;9.00;99.90;;;;;;5036840;28;20201;-69
2022/12/26 09:30:48;;;;;;;13.68;8.60;;;9.10;99.90;;;;;;5034685;28;20217;-69
2022/12/26 09:33:16;;;;;;;14.70;8.25;;;9.10;99.90;;;;;;5019209;28;20221;-70
2022/12/26 09:35:43;;;;;;;14.73;9.00;;;9.10;99.90;;;;;;4987077;28;20698;-68
2022/12/26 09:38:10;;;;;;;13.98;9.23;;;9.10;99.90;;;;;;5036174;28;20208;-68
2022/12/26 09:40:53;;;;;;;18.97;8.33;;;9.10;99.90;;;;;;5019824;28;20874;-68
2022/12/26 09:43:29;;;;;;;16.27;9.98;;;9.20;99.90;;;;;;5029066;28;20201;-68
2022/12/26 09:46:05;;;;;;;15.30;9.30;;;9.20;99.90;;;;;;5030527;28;20221;-69
2022/12/26 09:48:39;;;;;;;15.30;9.10;;;9.20;99.90;;;;;;5018811;28;20228;-69
2022/12/26 09:51:09;;;;;;;15.07;8.50;;;9.20;99.90;;;;;;4984125;28;20334;-69
2022/12/26 09:53:42;;;;;;;14.73;9.20;;;9.20;99.90;;;;;;5029021;28;20251;-68
2022/12/26 09:56:14;;;;;;;13.57;8.37;;;9.30;99.90;;;;;;5016576;28;20228;-69
2022/12/26 09:58:45;;;;;;;13.60;8.50;;;9.20;99.90;;;;;;5019574;28;20225;-68
2022/12/26 10:01:15;;;;;;;12.83;7.97;;;9.20;99.90;;;;;;5029160;28;21012;-69
2022/12/26 10:03:46;;;;;;;13.63;8.37;;;9.20;99.90;;;;;;5015529;28;20218;-68
2022/12/26 10:06:16;;;;;;;17.73;9.17;;;9.30;99.90;;;;;;5008815;28;20229;-69
2022/12/26 10:09:15;;;;;;;13.65;8.55;;;9.30;99.90;;;;;;5026144;28;20225;-69
2022/12/26 10:11:52;;;;;;;13.82;7.88;;;9.30;99.90;;;;;;5014060;28;20229;-69
2022/12/26 10:14:26;;;;;;;14.80;8.53;;;9.30;99.90;;;;;;5012780;28;20228;-69
2022/12/26 10:16:58;;;;;;;14.53;7.37;;;9.30;99.90;;;;;;5026545;28;21142;-69
2022/12/26 10:19:44;;;;;;;14.88;8.15;;;9.30;99.90;;;;;;5013571;28;20228;-69
2022/12/26 10:22:27;;;;;;;11.98;6.93;;;9.30;99.90;;;;;;5003695;28;20220;-70
2022/12/26 10:24:56;;;;;;;13.50;7.67;;;9.30;99.90;;;;;;5026394;28;20228;-70
2022/12/26 10:27:25;;;;;;;12.52;7.15;;;9.40;99.90;;;;;;5026221;28;21263;-70
2022/12/26 10:29:55;;;;;;;12.57;7.43;;;9.20;99.90;;;;;;5024708;28;20221;-70
2022/12/26 10:32:26;;;;;;;14.45;7.85;;;9.40;99.90;;;;;;5030444;28;20662;-70
2022/12/26 10:34:55;;;;;;;15.50;7.32;;;9.50;99.90;;;;;;5015814;28;20232;-70
2022/12/26 10:37:27;;;;;;;8.05;6.50;;;9.50;99.90;;;;;;5020272;28;20750;-70
2022/12/26 10:39:58;;;;;;;11.23;7.20;;;9.50;99.90;;;;;;5019063;28;20224;-69
2022/12/26 10:42:36;;;;;;;9.93;6.90;;;9.50;99.90;;;;;;5026433;28;21535;-70
2022/12/26 10:45:13;;;;;;;10.82;6.93;;;9.60;99.90;;;;;;5012648;28;20224;-69
2022/12/26 10:47:43;;;;;;;10.35;6.35;;;9.60;99.90;;;;;;5025061;28;20224;-70
2022/12/26 10:50:16;;;;;;;13.02;6.70;;;9.60;99.90;;;;;;5025098;28;20200;-70
2022/12/26 10:52:43;;;;;;;10.98;6.43;;;9.50;99.90;;;;;;5038710;28;20769;-69
2022/12/26 10:55:14;;;;;;;10.68;6.05;;;9.50;99.90;;;;;;5003806;28;20220;-69
2022/12/26 10:57:43;;;;;;;14.88;5.80;;;9.50;99.90;;;;;;5043299;28;20259;-69
2022/12/26 11:00:16;;;;;;;13.65;5.95;;;9.50;99.90;;;;;;5013305;28;21096;-70
2022/12/26 11:02:43;;;;;;;9.05;4.93;;;9.50;99.90;;;;;;5034505;28;20225;-69
2022/12/26 11:05:14;;;;;;;13.40;5.72;;;9.50;99.90;;;;;;5008841;28;20247;-69
2022/12/26 11:07:48;;;;;;;7.67;5.07;;;9.50;99.90;;;;;;5028991;28;20198;-69
2022/12/26 11:10:19;;;;;;;7.93;5.60;;;9.50;99.90;;;;;;5002851;28;20266;-69
2022/12/26 11:12:49;;;;;;;7.10;5.03;;;9.50;99.90;;;;;;5041218;28;20213;-69
2022/12/26 11:15:31;;;;;;;5.97;4.65;;;9.50;99.90;;;;;;5016472;28;20282;-69
2022/12/26 11:18:15;;;;;;;7.65;5.00;;;9.50;99.90;;;;;;5041229;28;20235;-69
2022/12/26 11:20:44;;;;;;;9.85;5.20;;;9.50;99.90;;;;;;5000203;28;20228;-69
2022/12/26 11:23:30;;;;;;;6.75;4.50;;;9.50;99.90;;;;;;5026487;28;20226;-69
2022/12/26 11:25:58;;;;;;;8.52;4.38;;;9.50;99.90;;;;;;4973973;28;20319;-69
2022/12/26 11:28:33;;;;;;;6.77;4.80;;;9.50;99.90;;;;;;5032037;28;20223;-69
2022/12/26 11:31:03;;;;;;;7.47;4.47;;;9.50;99.90;;;;;;5018502;28;20204;-69
2022/12/26 11:33:33;;;;;;;6.03;3.70;;;9.50;99.90;;;;;;5035821;28;20196;-69
2022/12/26 11:36:08;;;;;;;5.38;3.72;;;9.50;99.90;;;;;;5027910;28;20212;-69
2022/12/26 11:38:49;;;;;;;7.38;4.25;;;9.50;99.90;;;;;;5036410;28;20215;-69
2022/12/26 11:41:35;;;;;;;11.07;4.10;;;9.60;99.90;;;;;;5004459;28;20204;-69
2022/12/26 11:44:16;;;;;;;5.07;3.45;;;9.50;99.90;;;;;;5044620;28;20201;-69
2022/12/26 11:46:47;;;;;;;6.15;3.72;;;9.60;99.90;;;;;;5022867;28;20928;-69
2022/12/26 11:49:21;;;;;;;7.25;3.72;;;9.50;99.90;;;;;;5037141;28;20221;-69
2022/12/26 11:51:50;;;;;;;3.47;2.95;;;9.60;99.90;;;;;;5026515;28;20213;-69
2022/12/26 11:54:24;;;;;;;6.45;3.15;;;9.60;99.90;;;;;;5038582;28;20204;-69
2022/12/26 11:57:01;;;;;;;7.10;3.10;;;9.70;99.90;;;;;;4989961;28;20237;-69
2022/12/26 11:59:28;;;;;;;4.22;2.85;;;9.70;99.90;;;;;;5043722;28;20212;-69
2022/12/26 12:02:22;;;;;;;5.35;2.67;;;9.60;99.90;;;;;;5019838;28;20220;-69
2022/12/26 12:04:52;;;;;;;2.38;1.95;;;9.70;99.90;;;;;;5005737;28;20236;-69
2022/12/26 12:07:34;;;;;;;2.20;1.75;;;9.70;99.90;;;;;;5017248;28;20216;-69
2022/12/26 12:10:10;;;;;;;6.97;1.60;;;9.70;99.90;;;;;;5001739;28;20247;-70
2022/12/26 12:12:47;;;;;;;3.15;1.20;;;9.60;99.90;;;;;;5022378;28;20197;-69
2022/12/26 12:15:22;;;;;;;6.70;1.45;;;9.50;99.90;;;;;;5031635;28;21575;-69
2022/12/26 12:17:57;;;;;;;2.27;1.13;;;9.30;99.90;;;;;;5014572;28;20227;-69
2022/12/26 12:20:31;;;;;;;5.80;1.33;;;9.20;99.90;;;;;;5034844;28;20211;-69
2022/12/26 12:23:20;;;;;;;7.30;1.10;;;9.10;99.90;;;;;;5027653;28;20678;-69
2022/12/26 12:25:58;;;;;;;6.80;1.67;;;9.10;99.90;;;;;;4996987;28;20717;-69
2022/12/26 12:29:04;;;;;;;6.43;1.17;;;9.00;99.90;;;;;;5023117;28;20228;-69
2022/12/26 12:31:38;;;;;;;6.47;1.20;;;9.00;99.90;;;;;;5038361;28;20204;-69
2022/12/26 12:34:15;;;;;;;2.90;1.03;;;8.80;99.90;;;;;;5022445;28;20220;-69
2022/12/26 12:37:03;;;;;;;4.43;1.10;;;8.80;99.90;;;;;;5035668;28;20221;-69
2022/12/26 12:39:43;;;;;;;4.97;0.90;;;8.70;99.90;;;;;;5008772;28;20702;-69
2022/12/26 12:42:23;;;;;;;3.03;0.87;;;8.70;99.90;;;;;;5003690;28;20333;-69
2022/12/26 12:45:04;;;;;;;5.33;1.07;;;8.60;99.90;;;;;;5035582;28;20294;-69
2022/12/26 12:47:41;;;;;;;4.47;0.87;;;8.50;99.90;;;;;;5035459;28;20291;-69
2022/12/26 12:50:16;;;;;;;5.30;1.10;;;8.40;99.90;;;;;;5018314;28;20251;-69
2022/12/26 12:52:52;;;;;;;3.10;0.90;;;8.20;99.90;;;;;;5021608;28;20204;-69
2022/12/26 12:55:44;;;;;;;2.50;1.03;;;8.20;99.90;;;;;;5023827;28;20578;-69
2022/12/26 12:58:22;;;;;;;4.70;0.77;;;8.20;99.90;;;;;;4994690;28;20229;-69
2022/12/26 13:00:52;;;;;;;3.13;0.83;;;8.20;99.90;;;;;;5034747;28;20197;-69
2022/12/26 13:03:27;;;;;;;1.67;0.77;;;8.20;99.90;;;;;;5038898;28;20212;-69
2022/12/26 13:06:01;;;;;;;1.50;0.53;;;8.30;99.90;;;;;;5011997;28;20358;-69
2022/12/26 13:08:32;;;;;;;4.33;0.70;;;8.30;99.90;;;;;;5024519;28;20270;-68
2022/12/26 13:11:04;;;;;;;1.77;0.70;;;8.20;99.90;;;;;;5021176;28;20189;-69
2022/12/26 13:13:35;;;;;;;6.87;1.30;;;8.10;99.90;;;;;;4994989;28;20200;-69
2022/12/26 13:16:10;;;;;;;4.00;0.87;;;7.90;99.90;;;;;;5037442;28;20197;-69
2022/12/26 13:18:44;;;;;;;1.03;0.60;;;7.80;99.90;;;;;;5032818;28;20228;-69
2022/12/26 13:21:12;;;;;;;6.97;1.17;;;7.70;99.90;;;;;;5035874;28;20203;-69
2022/12/26 13:26:41;;;;;;;4.27;0.93;;;7.50;99.90;;;;;;5018936;28;20212;-69
2022/12/26 13:29:14;;;;;;;4.40;0.80;;;7.50;99.90;;;;;;5009303;28;20219;-69
2022/12/26 13:31:42;;;;;;;1.60;0.70;;;7.40;99.90;;;;;;5029953;28;20339;-68
2022/12/26 13:34:14;;;;;;;3.33;0.60;;;7.40;99.90;;;;;;5032232;28;20205;-68
2022/12/26 13:36:44;;;;;;;5.67;1.17;;;7.40;99.90;;;;;;5014084;28;20216;-68
2022/12/26 13:39:34;;;;;;;3.00;0.90;;;7.40;99.90;;;;;;5026852;28;20224;-69
2022/12/26 13:45:38;;;;;;;3.60;0.70;;;7.40;99.90;;;;;;4998362;28;20250;-68
2022/12/26 13:48:53;;;;;;;5.47;0.77;;;7.40;99.90;;;;;;5038434;28;20211;-68
2022/12/26 13:51:55;;;;;;;1.37;0.80;;;7.30;99.90;;;;;;5020320;28;20258;-68
2022/12/26 13:54:23;;;;;;;4.63;1.03;;;7.30;99.90;;;;;;4945100;28;20227;-68
2022/12/26 13:57:25;;;;;;;7.53;1.07;;;7.30;99.90;;;;;;4952936;28;20257;-68
2022/12/26 14:00:17;;;;;;;5.67;1.13;;;7.30;99.90;;;;;;4972136;28;20700;-68
2022/12/26 14:03:36;;;;;;;5.17;1.07;;;7.30;99.90;;;;;;5021231;28;20201;-68
2022/12/26 14:06:38;;;;;;;6.27;0.90;;;7.20;99.90;;;;;;5011148;28;20228;-68
2022/12/26 14:09:19;;;;;;;7.23;0.97;;;7.20;99.90;;;;;;5008533;28;20236;-68
2022/12/26 14:12:01;;;;;;;2.20;0.50;;;7.10;99.90;;;;;;5023713;28;20569;-68
2022/12/26 14:14:42;;;;;;;10.97;1.10;;;7.10;99.90;;;;;;5025218;28;20208;-68
2022/12/26 14:17:19;;;;;;;5.40;1.07;;;7.00;99.90;;;;;;5011162;28;20228;-68
2022/12/26 14:20:01;;;;;;;4.77;1.67;;;7.00;99.90;;;;;;5030205;28;20200;-68
2022/12/26 14:22:39;;;;;;;6.83;1.43;;;6.90;99.90;;;;;;5025204;28;20591;-68
2022/12/26 14:25:18;;;;;;;7.90;1.17;;;6.90;99.90;;;;;;5017459;28;20670;-68
2022/12/26 14:27:52;;;;;;;6.90;0.90;;;6.90;99.90;;;;;;5018869;28;20208;-68
2022/12/26 14:30:27;;;;;;;5.70;1.67;;;7.00;99.90;;;;;;5035609;28;20204;-68
2022/12/26 14:33:08;;;;;;;7.17;1.47;;;6.90;99.90;;;;;;5000874;28;20219;-68
2022/12/26 14:35:41;;;;;;;4.13;1.07;;;6.90;99.90;;;;;;5024404;28;20307;-68
2022/12/26 14:38:24;;;;;;;7.50;0.87;;;6.90;99.90;;;;;;5031156;28;20371;-68
2022/12/26 14:41:01;;;;;;;4.87;1.50;;;6.90;99.90;;;;;;5019017;28;20197;-68
2022/12/26 14:43:45;;;;;;;12.93;1.70;;;6.90;99.90;;;;;;5036785;28;20205;-68
2022/12/26 14:46:44;;;;;;;6.97;1.13;;;6.80;99.90;;;;;;4999240;28;20262;-68
2022/12/26 14:49:22;;;;;;;7.73;1.80;;;6.80;99.90;;;;;;5036042;28;20201;-68
2022/12/26 14:51:50;;;;;;;7.37;1.40;;;6.80;99.90;;;;;;5001630;28;20205;-68
2022/12/26 14:54:37;;;;;;;6.67;1.50;;;6.70;99.90;;;;;;5019846;28;20216;-69
2022/12/26 14:57:42;;;;;;;6.30;1.27;;;6.70;99.90;;;;;;5024013;28;20212;-68
2022/12/26 15:00:26;;;;;;;5.57;1.10;;;6.70;99.90;;;;;;5018721;28;20219;-68
2022/12/26 15:03:21;;;;;;;5.30;1.40;;;6.60;99.90;;;;;;4986115;28;20204;-68
2022/12/26 15:05:50;;;;;;;7.63;1.37;;;6.60;99.90;;;;;;5035130;28;20661;-68
2022/12/26 15:08:45;;;;;;;5.10;0.87;;;6.60;99.90;;;;;;5019203;28;20243;-68
2022/12/26 15:12:01;;;;;;;7.30;1.53;;;6.40;99.90;;;;;;5006105;28;20236;-68
2022/12/26 15:15:08;;;;;;;8.20;1.57;;;6.50;99.90;;;;;;5012254;28;20194;-69
2022/12/26 15:17:46;;;;;;;6.93;1.23;;;6.40;99.90;;;;;;4920082;28;20227;-67
2022/12/26 15:20:42;;;;;;;10.43;2.33;;;6.40;99.90;;;;;;5030888;28;20208;-68
2022/12/26 15:23:50;;;;;;;7.60;1.87;;;6.30;99.90;;;;;;5002158;28;20227;-68
2022/12/26 15:26:56;;;;;;;7.87;1.30;;;6.20;99.90;;;;;;4963193;28;20624;-67
2022/12/26 15:30:05;;;;;;;6.73;1.63;;;6.20;99.90;;;;;;5024717;28;20224;-67
2022/12/26 15:32:37;;;;;;;15.47;2.00;;;6.10;99.90;;;;;;4978912;28;20822;-68